Time;durP1;ratioP1;P1;durP2;ratioP2;P2;SDS_P1;SDS_P2;PMS_P1;PMS_P2;Temp;Humidity;BMP_temperature;BMP_pressure;BME280_temperature;BME280_humidity;BME280_pressure;Samples;Min_cycle;Max_cycle;Signal;HPM_P1;HPM_P2
2022/06/21 00:02:23;;;;;;;2.88;1.08;;;;;;;12.42;100.00;101803.63;5029866;28;20049;-30
2022/06/21 00:04:51;;;;;;;3.53;1.27;;;;;;;12.38;100.00;101802.53;5024529;28;20107;-34
2022/06/21 00:07:23;;;;;;;4.75;1.35;;;;;;;12.33;100.00;101807.31;5013425;28;20060;-32
2022/06/21 00:09:51;;;;;;;2.58;1.30;;;;;;;12.27;100.00;101808.47;5023350;28;20465;-28
2022/06/21 00:12:20;;;;;;;2.53;1.00;;;;;;;12.23;100.00;101810.16;5029980;28;20045;-29
2022/06/21 00:14:49;;;;;;;3.10;1.10;;;;;;;12.18;100.00;101805.44;5022735;28;20068;-31
2022/06/21 00:17:21;;;;;;;2.97;1.20;;;;;;;12.16;100.00;101810.50;5017010;28;20046;-33
2022/06/21 00:19:49;;;;;;;3.47;1.15;;;;;;;12.12;100.00;101809.38;5020285;28;20046;-30
2022/06/21 00:22:20;;;;;;;4.93;1.30;;;;;;;12.08;100.00;101806.31;5025280;28;20391;-32
2022/06/21 00:24:48;;;;;;;2.78;1.10;;;;;;;12.05;100.00;101806.88;5022303;28;20045;-32
2022/06/21 00:27:19;;;;;;;3.60;1.30;;;;;;;12.04;100.00;101809.97;5020417;28;20046;-31
2022/06/21 00:29:47;;;;;;;2.92;1.33;;;;;;;12.01;100.00;101816.97;5021354;28;20068;-32
2022/06/21 00:32:17;;;;;;;2.63;1.17;;;;;;;12.00;100.00;101801.31;5025379;28;20055;-28
2022/06/21 00:34:47;;;;;;;2.33;1.02;;;;;;;11.98;100.00;101795.19;5028183;28;20470;-36
2022/06/21 00:37:17;;;;;;;3.95;1.15;;;;;;;11.98;100.00;101806.38;5025806;28;20049;-27
2022/06/21 00:39:45;;;;;;;3.17;1.25;;;;;;;11.98;100.00;101799.94;5022219;28;20120;-29
2022/06/21 00:42:19;;;;;;;2.55;1.30;;;;;;;11.98;100.00;101797.97;5024503;28;20486;-32
2022/06/21 00:44:57;;;;;;;3.08;1.23;;;;;;;11.99;100.00;101796.81;5029413;28;20078;-33
2022/06/21 00:47:29;;;;;;;3.63;1.30;;;;;;;11.99;100.00;101805.22;5026813;28;20486;-30
2022/06/21 00:50:01;;;;;;;3.50;1.60;;;;;;;11.99;100.00;101798.81;5020518;28;20046;-33
2022/06/21 00:52:38;;;;;;;4.28;1.20;;;;;;;12.01;100.00;101791.78;5023983;28;20107;-29
2022/06/21 00:55:13;;;;;;;2.28;1.30;;;;;;;12.03;100.00;101789.53;5030067;28;20050;-30
2022/06/21 00:57:48;;;;;;;4.32;1.35;;;;;;;12.06;100.00;101791.78;5026871;28;20053;-26
2022/06/21 01:00:31;;;;;;;3.72;1.50;;;;;;;12.12;100.00;101788.97;5019851;28;20049;-33
2022/06/21 01:03:02;;;;;;;4.10;1.60;;;;;;;12.12;100.00;101792.59;5025630;28;20169;-30
2022/06/21 01:05:38;;;;;;;3.97;1.38;;;;;;;12.16;100.00;101784.47;5020028;28;20071;-33
2022/06/21 01:08:08;;;;;;;2.28;1.08;;;;;;;12.19;100.00;101778.31;5024510;28;20053;-32
2022/06/21 01:10:36;;;;;;;2.75;1.10;;;;;;;12.22;100.00;101777.69;5029801;28;20094;-31
2022/06/21 01:13:09;;;;;;;4.75;1.38;;;;;;;12.24;100.00;101772.66;5026092;28;20133;-34
2022/06/21 01:15:39;;;;;;;3.17;1.20;;;;;;;12.25;100.00;101772.38;5020168;28;20049;-30
2022/06/21 01:18:09;;;;;;;3.20;1.33;;;;;;;12.27;100.00;101774.88;5022600;28;20064;-31
2022/06/21 01:20:44;;;;;;;2.35;1.10;;;;;;;12.30;100.00;101765.91;5030907;28;20391;-34
2022/06/21 01:23:22;;;;;;;3.75;1.35;;;;;;;12.31;100.00;101773.19;5027511;28;20042;-32
2022/06/21 01:25:57;;;;;;;2.40;1.17;;;;;;;12.30;100.00;101761.16;5019042;28;20125;-31
2022/06/21 01:28:27;;;;;;;2.10;1.10;;;;;;;12.32;100.00;101755.28;5021346;28;20111;-33
2022/06/21 01:30:57;;;;;;;2.65;1.08;;;;;;;12.34;100.00;101755.81;5031645;28;20053;-32
2022/06/21 01:33:29;;;;;;;2.97;1.10;;;;;;;12.37;100.00;101766.44;5027284;28;20076;-34
2022/06/21 01:36:01;;;;;;;2.63;1.20;;;;;;;12.39;100.00;101766.97;5016752;28;20133;-30
2022/06/21 01:38:31;;;;;;;;;;;;;;;12.35;100.00;101757.50;5031889;28;20056;-32
2022/06/21 01:41:06;;;;;;;3.28;1.25;;;;;;;12.33;100.00;101752.19;5015510;28;19921;-31
2022/06/21 01:43:38;;;;;;;3.45;1.20;;;;;;;12.36;100.00;101751.63;5024761;28;20076;-28
2022/06/21 01:46:10;;;;;;;2.63;1.40;;;;;;;12.36;100.00;101750.78;5017431;28;20179;-28
2022/06/21 01:48:41;;;;;;;2.33;1.17;;;;;;;12.34;100.00;101753.88;5021182;28;20061;-37
2022/06/21 01:51:12;;;;;;;2.53;1.10;;;;;;;12.34;100.00;101744.63;5032511;28;20133;-31
2022/06/21 01:53:41;;;;;;;3.63;1.00;;;;;;;12.33;100.00;101751.34;5021906;28;20491;-32
2022/06/21 01:56:13;;;;;;;3.40;1.70;;;;;;;12.32;100.00;101741.28;5031773;28;20053;-31
2022/06/21 01:58:49;;;;;;;2.65;1.23;;;;;;;12.31;100.00;101739.59;5027040;28;20056;-28
2022/06/21 02:01:22;;;;;;;2.40;0.93;;;;;;;12.28;100.00;101732.63;5016244;28;20042;-29
2022/06/21 02:03:54;;;;;;;2.22;1.00;;;;;;;12.26;100.00;101736.81;5020993;28;20137;-34
2022/06/21 02:06:27;;;;;;;2.88;1.00;;;;;;;12.22;100.00;101736.56;5031736;28;20052;-34
2022/06/21 02:09:01;;;;;;;4.55;1.30;;;;;;;12.17;100.00;101738.59;5016620;28;20073;-30
2022/06/21 02:11:35;;;;;;;3.53;1.17;;;;;;;12.13;100.00;101734.69;5026270;28;20070;-33
2022/06/21 02:14:31;;;;;;;3.67;1.30;;;;;;;12.08;100.00;101725.19;5017838;28;20125;-29
2022/06/21 02:17:06;;;;;;;2.47;1.13;;;;;;;12.01;100.00;101721.00;4999237;28;20394;-32
2022/06/21 02:19:39;;;;;;;3.65;1.40;;;;;;;11.96;100.00;101721.91;5021120;28;20074;-28
2022/06/21 02:22:12;;;;;;;2.95;1.20;;;;;;;11.92;100.00;101726.41;4998909;28;20046;-31
2022/06/21 02:24:41;;;;;;;3.97;1.30;;;;;;;11.88;100.00;101710.47;5028096;28;20140;-32
2022/06/21 02:27:11;;;;;;;4.22;1.30;;;;;;;11.86;100.00;101701.53;5016298;28;20054;-28
2022/06/21 02:29:43;;;;;;;2.42;1.08;;;;;;;11.82;100.00;101692.88;5020958;28;20483;-33
2022/06/21 02:32:17;;;;;;;2.80;1.00;;;;;;;11.77;100.00;101689.28;5030911;28;20049;-30
2022/06/21 02:34:47;;;;;;;1.98;1.08;;;;;;;11.71;100.00;101688.44;5017384;28;20054;-30
2022/06/21 02:37:16;;;;;;;2.55;1.00;;;;;;;11.66;100.00;101683.69;5030498;28;20055;-36
2022/06/21 02:39:46;;;;;;;2.72;1.40;;;;;;;11.62;100.00;101701.31;5021937;28;20049;-34
2022/06/21 02:42:18;;;;;;;3.75;1.40;;;;;;;11.58;100.00;101689.91;5029112;28;20053;-31
2022/06/21 02:44:52;;;;;;;3.90;1.58;;;;;;;11.54;100.00;101691.56;5024083;28;20049;-34
2022/06/21 02:47:25;;;;;;;4.97;1.92;;;;;;;11.50;100.00;101695.22;5018535;28;20064;-35
2022/06/21 02:49:59;;;;;;;3.28;1.33;;;;;;;11.47;100.00;101693.00;5021591;28;20042;-31
2022/06/21 02:52:31;;;;;;;3.72;1.55;;;;;;;11.44;100.00;101697.19;5026946;28;20141;-28
2022/06/21 02:55:01;;;;;;;;;;;;;;;11.37;100.00;101691.09;5024838;28;20053;-30
2022/06/21 02:57:35;;;;;;;3.58;1.40;;;;;;;11.34;100.00;101694.44;5019680;28;19921;-34
2022/06/21 03:00:09;;;;;;;7.22;1.90;;;;;;;11.37;100.00;101700.31;5021276;28;20054;-32
2022/06/21 03:02:37;;;;;;;4.30;1.80;;;;;;;11.38;100.00;101704.78;5026411;28;20536;-29
2022/06/21 03:05:08;;;;;;;4.38;2.38;;;;;;;11.35;100.00;101708.13;5023676;28;20046;-30
2022/06/21 03:07:42;;;;;;;3.47;1.88;;;;;;;11.35;100.00;101694.16;5021596;28;20072;-27
2022/06/21 03:10:17;;;;;;;4.50;2.17;;;;;;;11.33;100.00;101707.56;5019647;28;20065;-31
2022/06/21 03:12:48;;;;;;;4.53;2.03;;;;;;;11.29;100.00;101706.47;5028158;28;20486;-34
2022/06/21 03:15:17;;;;;;;4.75;2.50;;;;;;;11.28;100.00;101713.16;5024330;28;20048;-36
2022/06/21 03:17:52;;;;;;;3.28;1.77;;;;;;;11.26;100.00;101711.78;5022954;28;20049;-36
2022/06/21 03:20:21;;;;;;;6.50;3.13;;;;;;;11.22;100.00;101711.50;5022461;28;20049;-33
2022/06/21 03:22:51;;;;;;;4.80;2.33;;;;;;;11.22;100.00;101714.28;5008288;28;20067;-32
2022/06/21 03:25:22;;;;;;;6.13;2.90;;;;;;;11.21;100.00;101714.56;5029597;28;20050;-33
2022/06/21 03:27:53;;;;;;;6.47;2.80;;;;;;;11.18;100.00;101707.63;5018777;28;20391;-32
2022/06/21 03:30:26;;;;;;;5.55;2.47;;;;;;;11.17;100.00;101710.69;5025537;28;20406;-29
2022/06/21 03:32:56;;;;;;;4.63;1.98;;;;;;;11.14;100.00;101691.69;5019750;28;20060;-31
2022/06/21 03:35:26;;;;;;;5.25;2.10;;;;;;;11.14;100.00;101691.69;5025494;28;20518;-34
2022/06/21 03:37:54;;;;;;;4.43;1.88;;;;;;;11.12;100.00;101686.41;5020352;28;20418;-31
2022/06/21 03:43:16;;;;;;;3.30;1.95;;;;;;;11.11;100.00;101695.91;5021595;28;20072;-30
2022/06/21 03:45:48;;;;;;;4.70;2.20;;;;;;;11.09;100.00;101692.53;5027060;28;20107;-32
2022/06/21 03:48:22;;;;;;;6.45;2.55;;;;;;;11.08;100.00;101695.63;5020282;28;20475;-35
2022/06/21 03:50:55;;;;;;;4.72;2.30;;;;;;;11.07;100.00;101693.94;5017591;28;20051;-30
2022/06/21 03:53:28;;;;;;;6.28;2.53;;;;;;;11.07;100.00;101694.78;5019996;28;20050;-31
2022/06/21 03:56:01;;;;;;;3.70;2.10;;;;;;;11.07;100.00;101694.78;5016464;28;20052;-31
2022/06/21 03:58:43;;;;;;;4.60;2.20;;;;;;;11.07;100.00;101693.94;5020424;28;20029;-32
2022/06/21 04:01:18;;;;;;;2.97;1.80;;;;;;;11.04;100.00;101686.97;5027470;28;20038;-28
2022/06/21 04:03:52;;;;;;;4.32;2.30;;;;;;;11.04;100.00;101682.22;5019942;28;20056;-31
2022/06/21 04:06:26;;;;;;;5.18;2.60;;;;;;;11.04;100.00;101682.22;5016787;28;20052;-31
2022/06/21 04:09:00;;;;;;;4.03;2.40;;;;;;;11.04;100.00;101676.63;5019318;28;20084;-28
2022/06/21 04:11:37;;;;;;;4.32;2.40;;;;;;;11.04;100.00;101686.97;5018512;28;20402;-29
2022/06/21 04:14:13;;;;;;;4.93;2.13;;;;;;;11.03;100.00;101679.69;5023697;28;20372;-30
2022/06/21 04:16:55;;;;;;;5.22;2.28;;;;;;;11.03;100.00;101682.50;5026353;28;20044;-39
2022/06/21 04:19:31;;;;;;;4.38;2.30;;;;;;;11.03;100.00;101693.66;5020956;28;20053;-32
2022/06/21 04:22:05;;;;;;;4.22;2.70;;;;;;;11.04;100.00;101692.53;5016995;28;20045;-30
2022/06/21 04:24:39;;;;;;;3.50;2.33;;;;;;;11.05;100.00;101683.88;5020511;28;20045;-34
2022/06/21 04:27:16;;;;;;;4.93;2.40;;;;;;;11.08;100.00;101670.47;5024779;28;20081;-35
2022/06/21 04:29:50;;;;;;;3.80;2.30;;;;;;;11.09;100.00;101664.63;5020347;28;20066;-31
2022/06/21 04:32:24;;;;;;;3.35;1.90;;;;;;;11.12;100.00;101664.03;5015400;28;20038;-32
2022/06/21 04:35:01;;;;;;;5.35;2.72;;;;;;;11.14;100.00;101677.72;5018380;28;20112;-29
2022/06/21 04:37:36;;;;;;;7.82;2.92;;;;;;;11.18;100.00;101671.31;5014759;28;20444;-33
2022/06/21 04:40:07;;;;;;;5.07;2.33;;;;;;;11.22;100.00;101674.34;5019522;28;20050;-31
2022/06/21 04:42:39;;;;;;;4.03;2.10;;;;;;;11.26;100.00;101670.69;5015657;28;20490;-34
2022/06/21 04:45:15;;;;;;;3.92;2.00;;;;;;;11.31;100.00;101667.91;5022346;28;20037;-30
2022/06/21 04:47:49;;;;;;;5.40;2.38;;;;;;;11.36;100.00;101670.69;5016536;28;20049;-30
2022/06/21 04:50:24;;;;;;;6.10;2.50;;;;;;;11.45;100.00;101675.66;5020919;28;20062;-35
2022/06/21 04:52:57;;;;;;;6.07;3.00;;;;;;;11.50;100.00;101672.88;5015386;28;20053;-35
2022/06/21 04:55:33;;;;;;;5.43;2.38;;;;;;;11.56;100.00;101674.53;5025859;28;20417;-30
2022/06/21 04:58:01;;;;;;;8.13;3.50;;;;;;;11.62;100.00;101671.41;5014539;28;20670;-32
2022/06/21 05:00:28;;;;;;;7.40;3.30;;;;;;;11.70;100.00;101673.59;5022792;28;20129;-31
2022/06/21 05:03:01;;;;;;;7.20;2.70;;;;;;;11.79;100.00;101675.84;5012888;28;20063;-26
2022/06/21 05:05:33;;;;;;;5.57;2.90;;;;;;;11.85;100.00;101661.53;5017500;28;20182;-31
2022/06/21 05:08:06;;;;;;;6.53;2.55;;;;;;;11.92;100.00;101678.84;5027923;28;20045;-32
2022/06/21 05:10:36;;;;;;;7.13;2.85;;;;;;;12.00;100.00;101678.22;5022740;28;20053;-32
2022/06/21 05:13:11;;;;;;;7.47;3.38;;;;;;;12.06;100.00;101674.28;5025653;28;20080;-34
2022/06/21 05:15:41;;;;;;;5.82;2.53;;;;;;;12.13;100.00;101679.56;5022761;28;20104;-31
2022/06/21 05:18:17;;;;;;;7.70;3.40;;;;;;;12.20;100.00;101676.41;5015830;28;20137;-31
2022/06/21 05:20:50;;;;;;;3.28;2.20;;;;;;;12.23;100.00;101679.47;5023181;28;20052;-30
2022/06/21 05:23:21;;;;;;;6.60;2.85;;;;;;;12.30;100.00;101676.34;5016077;28;20048;-32
2022/06/21 05:25:51;;;;;;;6.15;3.35;;;;;;;12.33;100.00;101673.81;5025889;28;20132;-34
2022/06/21 05:28:28;;;;;;;5.20;2.30;;;;;;;12.41;100.00;101669.53;5032859;28;20043;-28
2022/06/21 05:31:00;;;;;;;6.57;3.15;;;;;;;12.47;100.00;101668.38;5025584;28;20055;-31
2022/06/21 05:33:35;;;;;;;5.07;2.60;;;;;;;12.54;100.00;101674.50;4997710;28;20418;-27
2022/06/21 05:36:07;;;;;;;6.70;2.47;;;;;;;12.61;100.00;101674.97;5020619;28;20121;-32
2022/06/21 05:38:46;;;;;;;5.63;2.80;;;;;;;12.67;100.00;101685.00;5032643;28;20586;-33
2022/06/21 05:41:30;;;;;;;11.25;3.42;;;;;;;12.75;100.00;101692.81;5026951;28;20053;-34
2022/06/21 05:44:03;;;;;;;7.00;3.03;;;;;;;12.85;100.00;101679.81;5000794;28;20051;-28
2022/06/21 05:46:36;;;;;;;8.02;3.28;;;;;;;12.91;100.00;101684.25;5022065;28;20056;-30
2022/06/21 05:49:10;;;;;;;6.20;2.78;;;;;;;12.97;100.00;101695.13;4999399;28;20502;-26
2022/06/21 05:51:37;;;;;;;7.65;2.65;;;;;;;13.03;100.00;101693.91;5021929;28;20057;-27
2022/06/21 05:54:11;;;;;;;6.15;2.50;;;;;;;13.11;100.00;101684.88;5032145;28;20057;-32
2022/06/21 05:56:40;;;;;;;5.28;2.75;;;;;;;13.18;100.00;101689.34;5027054;28;20073;-29
2022/06/21 05:59:12;;;;;;;6.70;2.38;;;;;;;13.22;100.00;101684.78;5016471;28;20092;-34
2022/06/21 06:01:47;;;;;;;6.78;2.72;;;;;;;13.28;100.00;101687.25;5017980;28;20058;-35
2022/06/21 06:04:22;;;;;;;10.27;2.97;;;;;;;13.35;100.00;101687.75;5031997;28;20111;-34
2022/06/21 06:06:51;;;;;;;3.72;1.83;;;;;;;13.43;100.00;101697.44;5018311;28;20129;-30
2022/06/21 06:09:25;;;;;;;6.30;2.20;;;;;;;13.52;100.00;101683.63;5030755;28;20558;-31
2022/06/21 06:11:58;;;;;;;5.82;2.22;;;;;;;13.59;100.00;101684.09;5018263;28;20045;-33
2022/06/21 06:14:34;;;;;;;4.30;1.63;;;;;;;13.68;100.00;101694.34;5014412;28;20054;-30
2022/06/21 06:17:06;;;;;;;6.35;2.00;;;;;;;13.82;100.00;101685.19;5024624;28;20045;-32
2022/06/21 06:19:43;;;;;;;5.72;2.35;;;;;;;13.92;100.00;101691.50;5017157;28;20049;-37
2022/06/21 06:22:18;;;;;;;6.70;2.33;;;;;;;14.01;100.00;101698.09;5021359;28;20138;-30
2022/06/21 06:24:54;;;;;;;6.88;2.00;;;;;;;14.09;100.00;101705.84;5030600;28;20387;-32
2022/06/21 06:27:35;;;;;;;4.72;2.20;;;;;;;14.25;100.00;101708.44;5023424;28;20521;-34
2022/06/21 06:30:06;;;;;;;4.97;2.20;;;;;;;14.47;100.00;101703.91;5015971;28;20392;-34
2022/06/21 06:32:39;;;;;;;5.90;2.20;;;;;;;14.76;100.00;101708.53;5024702;28;20288;-30
2022/06/21 06:35:16;;;;;;;5.68;2.03;;;;;;;15.12;100.00;101708.72;5016989;28;20060;-34
2022/06/21 06:37:46;;;;;;;4.88;1.88;;;;;;;15.43;100.00;101706.16;5024526;28;20061;-29
2022/06/21 06:40:23;;;;;;;6.20;1.95;;;;;;;15.83;100.00;101705.34;5017251;28;20943;-33
2022/06/21 06:42:57;;;;;;;4.72;1.90;;;;;;;16.46;100.00;101712.09;5023733;28;20041;-27
2022/06/21 06:45:29;;;;;;;4.78;1.63;;;;;;;16.95;100.00;101716.00;5017057;28;20049;-30
2022/06/21 06:48:03;;;;;;;;;;;;;;;17.35;100.00;101705.63;5021580;28;20065;-38
2022/06/21 06:50:37;;;;;;;3.70;1.70;;;;;;;17.81;100.00;101713.63;5028608;28;20397;-36
2022/06/21 06:53:12;;;;;;;4.68;1.80;;;;;;;18.51;100.00;101715.41;5024256;28;20041;-29
2022/06/21 06:55:45;;;;;;;4.63;1.85;;;;;;;19.22;98.75;101718.69;5017489;28;20123;-34
2022/06/21 06:58:34;;;;;;;7.35;1.98;;;;;;;19.87;95.01;101711.78;5024767;28;20041;-30
2022/06/21 07:01:06;;;;;;;7.40;2.33;;;;;;;20.61;91.54;101714.81;5015927;28;20057;-39
2022/06/21 07:03:42;;;;;;;6.75;1.50;;;;;;;21.35;87.29;101718.78;5020772;28;20061;-35
2022/06/21 07:06:19;;;;;;;5.55;1.58;;;;;;;22.16;82.84;101723.59;5029564;28;20053;-32
2022/06/21 07:08:52;;;;;;;5.15;1.70;;;;;;;22.99;78.11;101730.59;5026118;28;20550;-34
2022/06/21 07:11:27;;;;;;;4.68;1.30;;;;;;;23.59;74.70;101728.63;5027697;28;20498;-32
2022/06/21 07:13:58;;;;;;;2.85;1.10;;;;;;;23.70;71.56;101735.44;5018827;28;20204;-29
2022/06/21 07:16:27;;;;;;;3.83;1.50;;;;;;;23.65;71.29;101732.88;5028832;28;20052;-29
2022/06/21 07:18:59;;;;;;;3.25;1.23;;;;;;;23.82;68.89;101731.66;5023066;28;20052;-35
2022/06/21 07:21:29;;;;;;;2.90;1.35;;;;;;;23.98;68.50;101736.16;5017948;28;20046;-32
2022/06/21 07:23:59;;;;;;;5.88;1.52;;;;;;;24.55;65.75;101725.31;5020977;28;20069;-30
2022/06/21 07:26:31;;;;;;;3.42;1.10;;;;;;;24.99;61.22;101718.13;5025894;28;20053;-30
2022/06/21 07:29:05;;;;;;;3.70;1.30;;;;;;;25.35;58.99;101722.53;5023385;28;20410;-35
2022/06/21 07:31:38;;;;;;;4.22;1.00;;;;;;;25.63;56.44;101727.97;5019986;28;20046;-34
2022/06/21 07:34:11;;;;;;;3.92;1.10;;;;;;;25.86;55.25;101727.13;5020456;28;20077;-30
2022/06/21 07:36:46;;;;;;;4.32;1.30;;;;;;;26.06;53.77;101718.06;5024701;28;20481;-32
2022/06/21 07:39:20;;;;;;;3.45;1.08;;;;;;;26.38;53.39;101712.84;5023034;28;20054;-32
2022/06/21 07:41:52;;;;;;;4.75;1.30;;;;;;;26.92;49.85;101720.16;5020480;28;20070;-30
2022/06/21 07:44:26;;;;;;;3.58;1.35;;;;;;;27.27;48.68;101710.31;5020796;28;20059;-37
2022/06/21 07:47:00;;;;;;;4.57;1.30;;;;;;;27.69;48.40;101709.97;5023568;28;20064;-34
2022/06/21 07:49:34;;;;;;;2.97;0.98;;;;;;;28.06;46.34;101710.69;5023103;28;20061;-34
2022/06/21 07:52:10;;;;;;;3.28;1.00;;;;;;;28.36;45.70;101709.69;5020904;28;20050;-30
2022/06/21 07:54:43;;;;;;;3.53;0.90;;;;;;;28.69;45.21;101708.63;5020137;28;20298;-31
2022/06/21 07:57:15;;;;;;;3.10;0.90;;;;;;;28.86;43.05;101709.97;5023256;28;20171;-32
2022/06/21 07:59:48;;;;;;;4.57;1.08;;;;;;;28.87;42.03;101712.44;5023046;28;20041;-32
2022/06/21 08:08:16;;;;;;;3.47;1.02;;;;;;;29.57;39.63;101721.69;4966807;28;20486;-33
2022/06/21 08:10:48;;;;;;;3.78;1.20;;;;;;;29.75;39.64;101716.78;5007971;28;20128;-32
2022/06/21 08:13:17;;;;;;;4.00;1.20;;;;;;;29.75;39.50;101722.53;5029103;28;20041;-33
2022/06/21 08:15:50;;;;;;;5.97;1.77;;;;;;;29.66;39.65;101725.81;5020152;28;20045;-38
2022/06/21 08:18:26;;;;;;;5.85;1.27;;;;;;;29.63;38.71;101722.91;5017365;28;20116;-30
2022/06/21 08:20:59;;;;;;;4.10;1.20;;;;;;;29.52;38.64;101728.66;5020329;28;20053;-30
2022/06/21 08:23:34;;;;;;;4.07;1.30;;;;;;;29.23;39.22;101716.25;5025945;28;20043;-31
2022/06/21 08:26:06;;;;;;;5.07;1.10;;;;;;;29.18;39.57;101721.59;5022548;28;20120;-30
2022/06/21 08:28:42;;;;;;;2.92;1.00;;;;;;;29.14;38.73;101716.66;5017631;28;20404;-31
2022/06/21 08:31:13;;;;;;;3.50;1.10;;;;;;;29.05;39.16;101707.56;5020240;28;20046;-31
2022/06/21 08:33:48;;;;;;;2.85;0.90;;;;;;;29.14;38.66;101702.28;5025017;28;20055;-32
2022/06/21 08:36:19;;;;;;;3.20;0.98;;;;;;;29.19;38.74;101711.69;5022028;28;20041;-39
2022/06/21 08:38:54;;;;;;;3.70;1.15;;;;;;;29.37;38.84;101712.59;5019194;28;20052;-37
2022/06/21 08:41:55;;;;;;;5.45;1.20;;;;;;;29.52;38.05;101711.41;5020103;28;20465;-31
2022/06/21 08:48:33;;;;;;;4.57;1.20;;;;;;;29.81;35.70;101720.88;5018884;28;20046;-31
2022/06/21 08:51:32;;;;;;;3.33;0.95;;;;;;;29.90;36.88;101720.47;5015082;28;20128;-30
2022/06/21 08:54:13;;;;;;;3.42;1.00;;;;;;;29.85;37.13;101720.88;5016383;28;20069;-31
2022/06/21 08:56:48;;;;;;;3.30;1.08;;;;;;;29.80;38.57;101714.28;5026015;28;20041;-30
2022/06/21 08:59:25;;;;;;;4.22;1.30;;;;;;;30.17;36.89;101710.22;5024631;28;20438;-30
2022/06/21 09:02:05;;;;;;;3.42;1.17;;;;;;;30.24;36.51;101710.19;5023717;28;20127;-34
2022/06/21 09:04:48;;;;;;;3.43;1.10;;;;;;;30.41;35.88;101697.78;5027076;28;20099;-31
2022/06/21 09:07:40;;;;;;;3.88;1.48;;;;;;;30.63;34.56;101706.41;5026194;28;20049;-36
2022/06/21 09:10:30;;;;;;;4.30;1.20;;;;;;;30.71;35.03;101696.50;5020055;28;20049;-38
2022/06/21 09:13:10;;;;;;;3.72;1.05;;;;;;;30.81;35.53;101698.50;5023114;28;20561;-31
2022/06/21 09:15:47;;;;;;;3.53;1.10;;;;;;;30.48;35.25;101699.84;5032318;28;20045;-37
2022/06/21 09:18:28;;;;;;;3.50;0.90;;;;;;;30.37;36.21;101702.75;5019370;28;20088;-31
2022/06/21 09:21:05;;;;;;;4.15;1.10;;;;;;;30.58;35.70;101703.94;5032811;28;20057;-34
2022/06/21 09:23:50;;;;;;;3.85;1.20;;;;;;;30.81;35.60;101698.50;5027068;28;20048;-30
2022/06/21 09:26:32;;;;;;;3.55;1.10;;;;;;;31.10;35.30;101700.03;5000161;28;20051;-31
2022/06/21 09:29:11;;;;;;;3.45;1.05;;;;;;;31.20;33.63;101698.34;5024373;28;20050;-36
2022/06/21 09:31:48;;;;;;;2.58;1.00;;;;;;;30.83;34.47;101691.09;5016379;28;20128;-30
2022/06/21 09:34:27;;;;;;;3.10;1.10;;;;;;;31.05;34.94;101685.22;5025262;28;20137;-31
2022/06/21 09:37:00;;;;;;;3.47;1.00;;;;;;;31.25;34.29;101688.44;5016511;28;20042;-33
2022/06/21 09:39:33;;;;;;;3.42;1.08;;;;;;;31.09;33.96;101686.03;5021711;28;20058;-35
2022/06/21 09:42:11;;;;;;;2.63;0.90;;;;;;;30.71;34.57;101687.88;5033257;28;20041;-34
2022/06/21 09:44:46;;;;;;;4.20;1.20;;;;;;;30.78;34.52;101680.00;5025295;28;20085;-32
2022/06/21 09:47:23;;;;;;;3.72;1.20;;;;;;;30.51;34.20;101678.84;5015529;28;20069;-31
2022/06/21 09:49:59;;;;;;;3.17;0.98;;;;;;;29.88;34.69;101674.84;5021734;28;20042;-35
2022/06/21 09:52:40;;;;;;;3.42;1.20;;;;;;;29.75;36.05;101656.34;5032407;28;20045;-36
2022/06/21 09:55:23;;;;;;;2.63;1.00;;;;;;;30.22;35.17;101660.81;5026615;28;20418;-32
2022/06/21 09:58:00;;;;;;;3.92;1.20;;;;;;;30.67;34.77;101659.06;5018017;28;20053;-31
2022/06/21 10:00:38;;;;;;;2.65;0.93;;;;;;;30.95;34.50;101654.41;5026151;28;20038;-34
2022/06/21 10:03:24;;;;;;;3.03;0.90;;;;;;;31.11;33.73;101655.56;5017486;28;20041;-31
2022/06/21 10:05:57;;;;;;;2.97;0.90;;;;;;;31.41;33.37;101654.09;5022789;28;20056;-38
2022/06/21 10:08:48;;;;;;;2.42;0.90;;;;;;;31.77;33.28;101652.63;5018758;28;20470;-37
2022/06/21 10:11:26;;;;;;;3.25;0.90;;;;;;;32.02;32.65;101648.66;5024296;28;20045;-37
2022/06/21 10:14:33;;;;;;;3.38;1.17;;;;;;;32.19;31.58;101645.56;5011254;28;20136;-34
2022/06/21 10:17:25;;;;;;;3.25;0.98;;;;;;;32.21;31.04;101653.84;4991204;28;20491;-33
2022/06/21 10:20:20;;;;;;;3.35;0.93;;;;;;;32.12;32.23;101651.44;5023307;28;20057;-32
2022/06/21 10:23:00;;;;;;;3.65;1.02;;;;;;;31.79;32.45;101652.16;5030837;28;20050;-31
2022/06/21 10:25:42;;;;;;;3.38;1.00;;;;;;;31.74;32.81;101659.25;5018482;28;20062;-34
2022/06/21 10:28:31;;;;;;;2.83;0.98;;;;;;;31.89;31.81;101659.09;5030966;28;20046;-37
2022/06/21 10:31:28;;;;;;;3.33;1.00;;;;;;;31.94;31.65;101650.81;5026243;28;20486;-33
2022/06/21 10:34:30;;;;;;;3.60;0.98;;;;;;;32.04;32.15;101652.75;5004122;28;20392;-32
2022/06/21 10:37:08;;;;;;;;;;;;;;;31.97;32.22;101657.78;5022589;28;20409;-36
2022/06/21 10:40:00;;;;;;;2.28;0.80;;;;;;;31.87;32.46;101647.97;5027459;28;19929;-32
2022/06/21 10:42:47;;;;;;;3.22;1.10;;;;;;;31.99;32.02;101653.19;5011909;28;20063;-35
2022/06/21 10:45:32;;;;;;;3.65;1.10;;;;;;;32.10;32.43;101642.38;5024532;28;20034;-32
2022/06/21 10:48:20;;;;;;;3.72;0.90;;;;;;;32.26;31.98;101647.59;5021586;28;20388;-42
2022/06/21 10:50:56;;;;;;;2.50;0.95;;;;;;;32.26;32.42;101647.59;5021437;28;20046;-32
2022/06/21 10:53:56;;;;;;;2.58;0.90;;;;;;;32.10;31.73;101633.72;5027410;28;20053;-38
2022/06/21 11:03:07;;;;;;;4.10;1.13;;;;;;;32.04;31.46;101638.31;5021505;28;20045;-30
2022/06/21 11:05:41;;;;;;;3.50;1.02;;;;;;;32.03;32.25;101636.66;5018837;28;20049;-34
2022/06/21 11:08:21;;;;;;;2.75;0.88;;;;;;;32.09;31.88;101640.75;5022025;28;20384;-33
2022/06/21 11:10:54;;;;;;;2.80;0.90;;;;;;;32.17;32.15;101636.50;5025303;28;20045;-39
2022/06/21 11:13:28;;;;;;;2.67;1.02;;;;;;;32.14;31.92;101630.78;5016076;28;20297;-34
2022/06/21 11:16:04;;;;;;;3.58;1.13;;;;;;;31.89;31.25;101636.00;5018937;28;20053;-31
2022/06/21 11:18:48;;;;;;;3.17;1.00;;;;;;;31.77;31.78;101634.47;5021523;28;20124;-34
2022/06/21 11:21:29;;;;;;;2.85;1.00;;;;;;;31.67;32.20;101629.59;5024595;28;20052;-32
2022/06/21 11:24:11;;;;;;;3.47;1.20;;;;;;;31.54;32.23;101632.16;5013078;28;20056;-31
2022/06/21 11:26:52;;;;;;;2.83;1.00;;;;;;;31.43;32.49;101625.66;5022859;28;20058;-31
2022/06/21 11:29:31;;;;;;;2.83;1.10;;;;;;;31.42;32.60;101633.50;5020971;28;20046;-38
2022/06/21 11:32:09;;;;;;;3.45;1.02;;;;;;;31.57;32.37;101631.31;5020897;28;20132;-38
2022/06/21 11:34:47;;;;;;;2.13;0.75;;;;;;;31.63;32.17;101623.84;5025272;28;20152;-30
2022/06/21 11:37:27;;;;;;;4.60;1.25;;;;;;;31.40;31.99;101623.63;5023510;28;20056;-35
2022/06/21 11:40:15;;;;;;;3.67;1.00;;;;;;;31.35;32.77;101626.97;5017976;28;20050;-31
2022/06/21 11:42:50;;;;;;;2.42;0.90;;;;;;;31.50;32.31;101617.78;5020890;28;20054;-32
2022/06/21 11:45:39;;;;;;;2.58;0.80;;;;;;;31.66;31.20;101616.41;5027918;28;20045;-31
2022/06/21 11:48:28;;;;;;;3.92;1.10;;;;;;;31.61;32.09;101611.06;5024210;28;20451;-34
2022/06/21 11:51:13;;;;;;;2.72;0.90;;;;;;;31.68;32.21;101603.22;5014268;28;20042;-32
2022/06/21 11:53:52;;;;;;;2.53;0.88;;;;;;;31.82;32.26;101608.00;5019094;28;20070;-40
2022/06/21 11:56:26;;;;;;;3.17;1.00;;;;;;;31.99;32.57;101606.19;4997974;28;20045;-37
2022/06/21 11:58:59;;;;;;;2.40;1.00;;;;;;;32.10;31.81;101598.25;5019672;28;20141;-37
2022/06/21 12:01:32;;;;;;;3.42;0.93;;;;;;;32.13;31.69;101595.31;4996962;28;20494;-35
2022/06/21 12:04:15;;;;;;;3.80;0.77;;;;;;;32.12;31.14;101589.97;5019365;28;20055;-36
2022/06/21 12:06:49;;;;;;;3.22;1.00;;;;;;;32.12;31.56;101589.97;4997738;28;20045;-41
2022/06/21 12:09:36;;;;;;;2.00;0.80;;;;;;;31.99;31.31;101589.69;5022154;28;20076;-32
2022/06/21 12:12:30;;;;;;;3.13;1.20;;;;;;;31.95;31.49;101588.09;5012939;28;20054;-35
2022/06/21 12:15:18;;;;;;;2.75;1.05;;;;;;;31.99;31.76;101583.09;5018828;28;20188;-40
2022/06/21 12:17:52;;;;;;;3.58;1.00;;;;;;;31.94;31.68;101583.56;5026299;28;20038;-31
2022/06/21 12:20:24;;;;;;;2.90;0.93;;;;;;;31.71;32.25;101582.16;5020289;28;20046;-30